createdAt,value
2023-01-23T00:00:10.536Z,0.65
2023-01-23T00:01:10.509Z,0.65
2023-01-23T00:02:10.558Z,0.65
2023-01-23T00:03:10.669Z,0.64
2023-01-23T00:04:10.553Z,0.63
2023-01-23T00:05:10.515Z,0.61
2023-01-23T00:06:10.522Z,0.61
2023-01-23T00:07:10.635Z,0.61
2023-01-23T00:08:10.500Z,0.63
2023-01-23T00:09:10.508Z,0.63
2023-01-23T00:10:10.503Z,0.61
2023-01-23T00:11:10.682Z,0.61
2023-01-23T00:12:10.506Z,0.63
2023-01-23T00:13:10.542Z,0.65
2023-01-23T00:14:10.515Z,0.63
2023-01-23T00:15:10.522Z,0.63
2023-01-23T00:16:10.565Z,0.61
2023-01-23T00:17:10.515Z,0.6
2023-01-23T00:18:10.660Z,0.61
2023-01-23T00:19:10.524Z,0.61
2023-01-23T00:20:10.509Z,0.62
2023-01-23T00:21:10.529Z,0.62
2023-01-23T00:22:11.789Z,0.6
2023-01-23T00:23:10.650Z,0.59
2023-01-23T00:24:10.507Z,0.6
2023-01-23T00:25:10.509Z,0.61
2023-01-23T00:26:10.527Z,0.61
2023-01-23T00:27:10.511Z,0.6
2023-01-23T00:28:10.730Z,0.61
2023-01-23T00:29:10.516Z,0.6
2023-01-23T00:30:10.504Z,0.58
2023-01-23T00:31:10.551Z,0.57
2023-01-23T00:32:10.504Z,0.56
2023-01-23T00:33:10.893Z,0.58
2023-01-23T00:34:10.614Z,0.59
2023-01-23T00:35:10.502Z,0.6
2023-01-23T00:36:10.524Z,0.6
2023-01-23T00:37:10.501Z,0.58
2023-01-23T00:38:10.527Z,0.59
2023-01-23T00:39:10.513Z,0.59
2023-01-23T00:40:10.507Z,0.6
2023-01-23T00:41:10.521Z,0.58
2023-01-23T00:42:10.505Z,0.59
2023-01-23T00:43:10.513Z,0.58
2023-01-23T00:44:10.515Z,0.58
2023-01-23T00:45:10.514Z,0.57
2023-01-23T00:46:10.562Z,0.55
2023-01-23T00:47:10.567Z,0.55
2023-01-23T00:48:10.507Z,0.55
2023-01-23T00:49:10.503Z,0.54
2023-01-23T00:50:10.513Z,0.54
2023-01-23T00:51:10.565Z,0.54
2023-01-23T00:52:10.507Z,0.53
2023-01-23T00:53:10.519Z,0.56
2023-01-23T00:54:10.521Z,0.57
2023-01-23T00:55:10.533Z,0.58
2023-01-23T00:56:10.509Z,0.56
2023-01-23T00:57:10.497Z,0.55
2023-01-23T00:58:10.538Z,0.55
2023-01-23T00:59:10.501Z,0.53
2023-01-23T01:00:10.508Z,0.52
2023-01-23T01:01:10.504Z,0.52
2023-01-23T01:02:10.592Z,0.51
2023-01-23T01:03:10.601Z,0.52
2023-01-23T01:04:10.505Z,0.52
2023-01-23T01:05:10.504Z,0.52
2023-01-23T01:06:10.515Z,0.52
2023-01-23T01:07:10.510Z,0.53
2023-01-23T01:08:10.517Z,0.52
2023-01-23T01:09:10.524Z,0.53
2023-01-23T01:10:10.505Z,0.52
2023-01-23T01:11:10.512Z,0.5
2023-01-23T01:12:10.497Z,0.49
2023-01-23T01:13:10.517Z,0.48
2023-01-23T01:14:10.522Z,0.47
2023-01-23T01:15:10.522Z,0.47
2023-01-23T01:16:10.572Z,0.45
2023-01-23T01:17:10.507Z,0.44
2023-01-23T01:18:10.511Z,0.43
2023-01-23T01:19:10.514Z,0.44
2023-01-23T01:20:10.514Z,0.43
2023-01-23T01:21:10.519Z,0.44
2023-01-23T01:22:10.510Z,0.43
2023-01-23T01:23:10.524Z,0.43
2023-01-23T01:24:10.510Z,0.44
2023-01-23T01:25:10.516Z,0.45
2023-01-23T01:26:10.790Z,0.46
2023-01-23T01:27:10.511Z,0.47
2023-01-23T01:28:10.694Z,0.49
2023-01-23T01:29:10.593Z,0.51
2023-01-23T01:30:11.010Z,0.5
2023-01-23T01:31:10.569Z,0.52
2023-01-23T01:32:10.767Z,0.53
2023-01-23T01:33:10.514Z,0.53
2023-01-23T01:34:10.507Z,0.55
2023-01-23T01:35:10.536Z,0.55
2023-01-23T01:36:10.509Z,0.55
2023-01-23T01:37:10.510Z,0.57
2023-01-23T01:38:10.519Z,0.55
2023-01-23T01:39:10.500Z,0.55
2023-01-23T01:40:10.530Z,0.57
2023-01-23T01:41:10.541Z,0.57
2023-01-23T01:42:10.503Z,0.55
2023-01-23T01:43:10.507Z,0.56
2023-01-23T01:44:10.510Z,0.54
2023-01-23T01:45:10.533Z,0.55
2023-01-23T01:46:10.560Z,0.55
2023-01-23T01:47:10.774Z,0.54
2023-01-23T01:48:10.503Z,0.55
2023-01-23T01:49:10.509Z,0.54
2023-01-23T01:50:13.519Z,0.56
2023-01-23T01:51:10.555Z,0.57
2023-01-23T01:52:10.511Z,0.58
2023-01-23T01:53:10.501Z,0.59
2023-01-23T01:54:10.530Z,0.6
2023-01-23T01:55:10.504Z,0.62
2023-01-23T01:56:10.511Z,0.61
2023-01-23T01:57:10.524Z,0.61
2023-01-23T01:58:10.501Z,0.62
2023-01-23T01:59:10.510Z,0.63
2023-01-23T02:00:10.502Z,0.64
2023-01-23T02:01:10.521Z,0.65
2023-01-23T02:02:10.582Z,0.65
2023-01-23T02:03:10.505Z,0.66
2023-01-23T02:04:10.514Z,0.67
2023-01-23T02:05:10.510Z,0.67
2023-01-23T02:06:10.513Z,0.67
2023-01-23T02:07:10.516Z,0.68
2023-01-23T02:08:10.500Z,0.68
2023-01-23T02:09:10.503Z,0.68
2023-01-23T02:10:10.501Z,0.67
2023-01-23T02:11:10.506Z,0.67
2023-01-23T02:12:10.511Z,0.69
2023-01-23T02:13:10.515Z,0.69
2023-01-23T02:14:10.499Z,0.69
2023-01-23T02:15:10.503Z,0.69
2023-01-23T02:16:10.518Z,0.7
2023-01-23T02:17:10.506Z,0.7
2023-01-23T02:18:10.509Z,0.7
2023-01-23T02:19:10.512Z,0.7
2023-01-23T02:20:10.500Z,0.69
2023-01-23T02:21:10.506Z,0.68
2023-01-23T02:22:10.513Z,0.68
2023-01-23T02:23:10.510Z,0.66
2023-01-23T02:24:10.541Z,0.66
2023-01-23T02:25:10.505Z,0.67
2023-01-23T02:26:10.494Z,0.67
2023-01-23T02:27:10.506Z,0.67
2023-01-23T02:28:10.504Z,0.67
2023-01-23T02:29:10.515Z,0.68
2023-01-23T02:30:10.502Z,0.69
2023-01-23T02:31:10.575Z,0.7
2023-01-23T02:32:10.538Z,0.71
2023-01-23T02:33:10.504Z,0.7
2023-01-23T02:34:10.523Z,0.7
2023-01-23T02:35:10.513Z,0.71
2023-01-23T02:36:10.502Z,0.71
2023-01-23T02:37:10.507Z,0.73
2023-01-23T02:38:10.504Z,0.73
2023-01-23T02:39:10.528Z,0.73
2023-01-23T02:40:10.660Z,0.71
2023-01-23T02:41:10.925Z,0.73
2023-01-23T02:42:10.690Z,0.74
2023-01-23T02:43:10.507Z,0.75
2023-01-23T02:44:10.746Z,0.75
2023-01-23T02:45:10.996Z,0.75
2023-01-23T02:46:11.370Z,0.75
2023-01-23T02:47:10.498Z,0.74
2023-01-23T02:48:10.497Z,0.74
2023-01-23T02:49:10.505Z,0.74
2023-01-23T02:50:10.506Z,0.73
2023-01-23T02:51:10.517Z,0.74
2023-01-23T02:52:10.578Z,0.75
2023-01-23T02:53:10.494Z,0.76
2023-01-23T02:54:10.502Z,0.75
2023-01-23T02:55:10.503Z,0.76
2023-01-23T02:56:10.492Z,0.74
2023-01-23T02:57:11.508Z,0.74
2023-01-23T02:58:11.706Z,0.74
2023-01-23T02:59:10.857Z,0.74
2023-01-23T03:00:10.122Z,0.78
2023-01-23T03:01:11.500Z,0.78
2023-01-23T03:02:11.780Z,0.79
2023-01-23T03:03:11.024Z,0.78
2023-01-23T03:04:11.248Z,0.79
2023-01-23T03:05:10.525Z,0.8
2023-01-23T03:06:11.803Z,0.81
2023-01-23T03:07:10.765Z,0.81
2023-01-23T03:08:10.769Z,0.82
2023-01-23T03:09:11.027Z,0.82
2023-01-23T03:10:10.771Z,0.85
2023-01-23T03:11:10.665Z,0.83
2023-01-23T03:12:10.515Z,0.84
2023-01-23T03:13:10.759Z,0.86
2023-01-23T03:14:10.510Z,0.86
2023-01-23T03:15:10.732Z,0.88
2023-01-23T03:16:10.639Z,0.89
2023-01-23T03:17:10.794Z,0.91
2023-01-23T03:18:10.585Z,0.9
2023-01-23T03:19:10.642Z,0.89
2023-01-23T03:20:10.674Z,0.91
2023-01-23T03:21:10.718Z,0.9
2023-01-23T03:22:10.645Z,0.91
2023-01-23T03:23:10.517Z,0.91
2023-01-23T03:24:10.554Z,0.9
2023-01-23T03:25:10.588Z,0.89
2023-01-23T03:26:10.496Z,0.91
2023-01-23T03:27:10.529Z,0.94
2023-01-23T03:28:10.505Z,0.93
2023-01-23T03:29:10.504Z,0.92
2023-01-23T03:30:10.522Z,0.91
2023-01-23T03:31:10.524Z,0.94
2023-01-23T03:32:10.527Z,0.91
2023-01-23T03:33:10.574Z,0.96
2023-01-23T03:34:10.515Z,0.94
2023-01-23T03:35:10.542Z,0.94
2023-01-23T03:36:13.516Z,0.95
2023-01-23T03:37:10.510Z,0.97
2023-01-23T03:38:10.514Z,0.97
2023-01-23T03:39:10.503Z,0.97
2023-01-23T03:40:10.543Z,0.97
2023-01-23T03:41:10.509Z,0.97
2023-01-23T03:42:10.556Z,0.98
2023-01-23T03:43:10.507Z,0.96
2023-01-23T03:44:10.505Z,0.97
2023-01-23T03:45:10.527Z,0.97
2023-01-23T03:46:10.643Z,0.96
2023-01-23T03:47:10.883Z,0.98
2023-01-23T03:48:10.509Z,0.98
2023-01-23T03:49:10.498Z,1
2023-01-23T03:50:10.536Z,0.99
2023-01-23T03:51:10.509Z,0.98
2023-01-23T03:52:10.509Z,1.01
2023-01-23T03:53:10.501Z,0.98
2023-01-23T03:54:10.506Z,1.01
2023-01-23T03:55:10.522Z,1.04
2023-01-23T03:56:10.525Z,1
2023-01-23T03:57:10.502Z,1.03
2023-01-23T03:58:10.514Z,1.03
2023-01-23T03:59:10.503Z,1.02
2023-01-23T04:00:10.505Z,1.04
2023-01-23T04:01:10.724Z,1.04
2023-01-23T04:02:10.509Z,1.01
2023-01-23T04:03:10.531Z,1.03
2023-01-23T04:04:10.505Z,1.06
2023-01-23T04:05:10.511Z,1.05
2023-01-23T04:06:10.530Z,1.06
2023-01-23T04:07:10.499Z,1.05
2023-01-23T04:08:10.530Z,1.06
2023-01-23T04:09:10.505Z,1.05
2023-01-23T04:10:13.508Z,1.05
2023-01-23T04:11:10.505Z,1.03
2023-01-23T04:12:10.508Z,1.05
2023-01-23T04:13:10.555Z,1.03
2023-01-23T04:14:10.520Z,1.04
2023-01-23T04:15:10.530Z,1.04
2023-01-23T04:16:10.580Z,1.04
2023-01-23T04:17:10.525Z,1.03
2023-01-23T04:18:10.499Z,1.02
2023-01-23T04:19:10.508Z,1.04
2023-01-23T04:20:10.529Z,1.03
2023-01-23T04:21:10.497Z,1.03
2023-01-23T04:22:10.529Z,1.05
2023-01-23T04:23:10.505Z,1.06
2023-01-23T04:24:10.507Z,1.05
2023-01-23T04:25:10.507Z,1.04
2023-01-23T04:26:10.500Z,1.03
2023-01-23T04:27:10.516Z,1.04
2023-01-23T04:28:10.541Z,1.04
2023-01-23T04:29:10.506Z,1.06
2023-01-23T04:30:10.685Z,1.06
2023-01-23T04:31:10.573Z,1.08
2023-01-23T04:32:10.510Z,1.07
2023-01-23T04:33:10.544Z,1.07
2023-01-23T04:34:10.510Z,1.08
2023-01-23T04:35:10.506Z,1.09
2023-01-23T04:36:10.502Z,1.08
2023-01-23T04:37:10.510Z,1.07
2023-01-23T04:38:10.531Z,1.06
2023-01-23T04:39:10.505Z,1.05
2023-01-23T04:40:10.515Z,1.03
2023-01-23T04:41:10.502Z,1.02
2023-01-23T04:42:10.501Z,1.05
2023-01-23T04:43:10.504Z,1.02
2023-01-23T04:44:10.594Z,1.01
2023-01-23T04:45:10.505Z,1.01
2023-01-23T04:46:10.530Z,1.04
2023-01-23T04:47:10.497Z,1.02
2023-01-23T04:48:10.502Z,1.03
2023-01-23T04:49:10.508Z,1.02
2023-01-23T04:50:10.504Z,1.01
2023-01-23T04:51:10.579Z,1.01
2023-01-23T04:52:10.504Z,1.01
2023-01-23T04:53:10.504Z,0.99
2023-01-23T04:54:10.516Z,1
2023-01-23T04:55:10.500Z,1.02
2023-01-23T04:56:10.511Z,1.01
2023-01-23T04:57:10.517Z,1.04
2023-01-23T04:58:10.587Z,1.03
2023-01-23T04:59:10.501Z,0.99
2023-01-23T05:00:11.900Z,1.01
2023-01-23T05:01:12.059Z,1.01
2023-01-23T05:02:10.517Z,1
2023-01-23T05:03:10.666Z,1.03
2023-01-23T05:04:10.592Z,1.02
2023-01-23T05:05:10.862Z,1.02
2023-01-23T05:06:10.519Z,1.03
2023-01-23T05:07:10.765Z,1.02
2023-01-23T05:08:10.517Z,1.02
2023-01-23T05:09:10.515Z,1.04
2023-01-23T05:10:10.495Z,1.02
2023-01-23T05:11:10.585Z,1.02
2023-01-23T05:12:10.506Z,1.03
2023-01-23T05:13:10.507Z,1.01
2023-01-23T05:14:10.524Z,1.02
2023-01-23T05:15:10.509Z,1
2023-01-23T05:16:10.587Z,1.02
2023-01-23T05:17:10.513Z,1
2023-01-23T05:18:10.503Z,1.02
2023-01-23T05:19:10.502Z,1.01
2023-01-23T05:20:10.513Z,1
2023-01-23T05:21:10.507Z,1.01
2023-01-23T05:22:10.523Z,1.01
2023-01-23T05:23:10.518Z,1.02
2023-01-23T05:24:10.517Z,1.02
2023-01-23T05:25:10.503Z,1.01
2023-01-23T05:26:10.605Z,1.02
2023-01-23T05:27:10.519Z,1
2023-01-23T05:28:13.707Z,1
2023-01-23T05:29:10.513Z,1
2023-01-23T05:30:10.506Z,0.99
2023-01-23T05:31:10.713Z,0.99
2023-01-23T05:32:10.552Z,1
2023-01-23T05:33:10.503Z,1.01
2023-01-23T05:34:10.505Z,1.01
2023-01-23T05:35:10.507Z,1
2023-01-23T05:36:10.510Z,1
2023-01-23T05:37:10.536Z,1
2023-01-23T05:38:10.504Z,0.98
2023-01-23T05:39:10.540Z,0.99
2023-01-23T05:40:10.510Z,0.99
2023-01-23T05:41:10.505Z,1
2023-01-23T05:42:10.540Z,1
2023-01-23T05:43:10.506Z,1
2023-01-23T05:44:10.518Z,0.98
2023-01-23T05:45:10.517Z,0.99
2023-01-23T05:46:10.506Z,1
2023-01-23T05:47:10.529Z,0.99
2023-01-23T05:48:10.496Z,1
2023-01-23T05:49:10.509Z,1
2023-01-23T05:50:10.507Z,1
2023-01-23T05:51:10.543Z,1
2023-01-23T05:52:10.530Z,1
2023-01-23T05:53:10.597Z,1
2023-01-23T05:54:10.504Z,0.99
2023-01-23T05:55:10.519Z,1
2023-01-23T05:56:10.503Z,1
2023-01-23T05:57:10.517Z,1
2023-01-23T05:58:10.501Z,1.01
2023-01-23T05:59:10.506Z,1.01
2023-01-23T06:00:10.502Z,1.05
2023-01-23T06:01:10.514Z,1.05
2023-01-23T06:02:10.629Z,1.04
2023-01-23T06:03:10.503Z,1.04
2023-01-23T06:04:10.509Z,1.03
2023-01-23T06:05:10.499Z,1.05
2023-01-23T06:06:10.504Z,1.04
2023-01-23T06:07:10.530Z,1.05
2023-01-23T06:08:10.615Z,1.05
2023-01-23T06:09:10.504Z,1.07
2023-01-23T06:10:10.511Z,1.06
2023-01-23T06:11:10.508Z,1.04
2023-01-23T06:12:10.587Z,1.05
2023-01-23T06:13:10.824Z,1.04
2023-01-23T06:14:10.556Z,1.04
2023-01-23T06:15:10.510Z,1.05
2023-01-23T06:16:11.705Z,1.03
2023-01-23T06:17:10.894Z,1.04
2023-01-23T06:18:11.324Z,1.05
2023-01-23T06:19:10.503Z,1.07
2023-01-23T06:20:10.508Z,1.06
2023-01-23T06:21:10.504Z,1.04
2023-01-23T06:22:10.512Z,1.03
2023-01-23T06:23:10.505Z,1.05
2023-01-23T06:24:10.501Z,1.04
2023-01-23T06:25:10.508Z,1.05
2023-01-23T06:26:10.505Z,1.03
2023-01-23T06:27:10.499Z,1.05
2023-01-23T06:28:10.500Z,1.04
2023-01-23T06:29:10.516Z,1.05
2023-01-23T06:30:10.514Z,1.06
2023-01-23T06:31:10.623Z,1.07
2023-01-23T06:32:10.513Z,1.06
2023-01-23T06:33:10.515Z,1.06
2023-01-23T06:34:10.507Z,1.06
2023-01-23T06:35:10.501Z,1.08
2023-01-23T06:36:10.503Z,1.08
2023-01-23T06:37:10.517Z,1.08
2023-01-23T06:38:10.515Z,1.08
2023-01-23T06:39:10.510Z,1.1
2023-01-23T06:40:10.495Z,1.09
2023-01-23T06:41:10.499Z,1.1
2023-01-23T06:42:10.515Z,1.12
2023-01-23T06:43:11.578Z,1.11
2023-01-23T06:44:11.893Z,1.1
2023-01-23T06:45:10.021Z,1.09
2023-01-23T06:46:10.382Z,1.08
2023-01-23T06:47:10.573Z,1.1
2023-01-23T06:48:10.856Z,1.11
2023-01-23T06:49:10.515Z,1.11
2023-01-23T06:50:10.657Z,1.11
2023-01-23T06:51:10.972Z,1.1
2023-01-23T06:52:10.506Z,1.11
2023-01-23T06:53:10.493Z,1.11
2023-01-23T06:54:10.508Z,1.12
2023-01-23T06:55:10.505Z,1.13
2023-01-23T06:56:10.526Z,1.13
2023-01-23T06:57:10.504Z,1.11
2023-01-23T06:58:10.505Z,1.1
2023-01-23T06:59:10.502Z,1.08
2023-01-23T07:00:10.510Z,1.1
2023-01-23T07:01:10.519Z,1.08
2023-01-23T07:02:10.515Z,1.07
2023-01-23T07:03:10.620Z,1.07
2023-01-23T07:04:10.517Z,1.1
2023-01-23T07:05:10.498Z,1.1
2023-01-23T07:06:10.505Z,1.1
2023-01-23T07:07:10.519Z,1.1
2023-01-23T07:08:10.513Z,1.1
2023-01-23T07:09:10.524Z,1.1
2023-01-23T07:10:10.502Z,1.11
2023-01-23T07:11:10.503Z,1.12
2023-01-23T07:12:10.552Z,1.12
2023-01-23T07:13:10.544Z,1.12
2023-01-23T07:14:10.528Z,1.11
2023-01-23T07:15:10.514Z,1.1
2023-01-23T07:16:10.564Z,1.11
2023-01-23T07:17:10.555Z,1.14
2023-01-23T07:18:10.551Z,1.12
2023-01-23T07:19:10.533Z,1.12
2023-01-23T07:20:10.520Z,1.13
2023-01-23T07:21:10.644Z,1.14
2023-01-23T07:22:10.527Z,1.1
2023-01-23T07:23:10.501Z,1.11
2023-01-23T07:24:10.510Z,1.13
2023-01-23T07:25:10.775Z,1.13
2023-01-23T07:26:10.735Z,1.12
2023-01-23T07:27:10.563Z,1.12
2023-01-23T07:28:10.578Z,1.13
2023-01-23T07:29:10.841Z,1.13
2023-01-23T07:30:10.755Z,1.13
2023-01-23T07:31:10.686Z,1.15
2023-01-23T07:32:11.701Z,1.15
2023-01-23T07:33:10.747Z,1.16
2023-01-23T07:34:10.507Z,1.15
2023-01-23T07:35:10.746Z,1.17
2023-01-23T07:36:10.537Z,1.18
2023-01-23T07:37:10.764Z,1.17
2023-01-23T07:38:10.510Z,1.17
2023-01-23T07:39:10.502Z,1.19
2023-01-23T07:40:10.507Z,1.19
2023-01-23T07:41:10.514Z,1.19
2023-01-23T07:42:10.511Z,1.17
2023-01-23T07:43:10.505Z,1.2
2023-01-23T07:44:10.517Z,1.21
2023-01-23T07:45:10.642Z,1.2
2023-01-23T07:46:10.566Z,1.24
2023-01-23T07:47:10.523Z,1.23
2023-01-23T07:48:10.501Z,1.23
2023-01-23T07:49:10.511Z,1.22
2023-01-23T07:50:10.523Z,1.2
2023-01-23T07:51:10.552Z,1.21
2023-01-23T07:52:10.499Z,1.2
2023-01-23T07:53:10.498Z,1.21
2023-01-23T07:54:10.503Z,1.24
2023-01-23T07:55:10.508Z,1.23
2023-01-23T07:56:10.503Z,1.24
2023-01-23T07:57:10.501Z,1.22
2023-01-23T07:58:10.598Z,1.24
2023-01-23T07:59:10.510Z,1.26
2023-01-23T08:00:10.503Z,1.27
2023-01-23T08:01:10.559Z,1.27
2023-01-23T08:02:10.503Z,1.28
2023-01-23T08:03:10.502Z,1.3
2023-01-23T08:04:10.524Z,1.3
2023-01-23T08:05:10.513Z,1.33
2023-01-23T08:06:10.503Z,1.3
2023-01-23T08:07:10.516Z,1.31
2023-01-23T08:08:14.030Z,1.33
2023-01-23T08:09:10.506Z,1.33
2023-01-23T08:10:10.514Z,1.36
2023-01-23T08:11:10.504Z,1.36
2023-01-23T08:12:10.595Z,1.32
2023-01-23T08:13:10.515Z,1.33
2023-01-23T08:14:10.503Z,1.36
2023-01-23T08:15:10.525Z,1.36
2023-01-23T08:16:13.858Z,1.35
2023-01-23T08:17:10.502Z,1.37
2023-01-23T08:18:10.503Z,1.35
2023-01-23T08:19:10.502Z,1.37
2023-01-23T08:20:10.503Z,1.37
2023-01-23T08:21:10.503Z,1.39
2023-01-23T08:22:10.504Z,1.38
2023-01-23T08:23:10.505Z,1.39
2023-01-23T08:24:10.521Z,1.4
2023-01-23T08:25:10.503Z,1.4
2023-01-23T08:26:10.604Z,1.37
2023-01-23T08:27:10.517Z,1.42
2023-01-23T08:28:10.516Z,1.41
2023-01-23T08:29:10.523Z,1.39
2023-01-23T08:30:10.504Z,1.38
2023-01-23T08:31:10.645Z,1.37
2023-01-23T08:32:10.508Z,1.41
2023-01-23T08:33:10.499Z,1.41
2023-01-23T08:34:10.513Z,1.43
2023-01-23T08:35:10.518Z,1.43
2023-01-23T08:36:11.763Z,1.41
2023-01-23T08:37:10.499Z,1.4
2023-01-23T08:38:10.612Z,1.39
2023-01-23T08:39:10.552Z,1.39
2023-01-23T08:40:10.868Z,1.38
2023-01-23T08:41:10.512Z,1.41
2023-01-23T08:42:10.802Z,1.42
2023-01-23T08:43:10.507Z,1.44
2023-01-23T08:44:10.530Z,1.43
2023-01-23T08:45:10.510Z,1.44
2023-01-23T08:46:10.587Z,1.46
2023-01-23T08:47:10.512Z,1.47
2023-01-23T08:48:10.503Z,1.47
2023-01-23T08:49:11.551Z,1.49
2023-01-23T08:50:10.504Z,1.5
2023-01-23T08:51:10.563Z,1.46
2023-01-23T08:52:10.511Z,1.5
2023-01-23T08:53:10.519Z,1.5
2023-01-23T08:54:10.523Z,1.51
2023-01-23T08:55:10.507Z,1.51
2023-01-23T08:56:10.573Z,1.54
2023-01-23T08:57:10.511Z,1.54
2023-01-23T08:58:10.505Z,1.55
2023-01-23T08:59:10.511Z,1.53
2023-01-23T09:00:10.521Z,1.52
2023-01-23T09:01:10.541Z,1.54
2023-01-23T09:02:10.531Z,1.56
2023-01-23T09:03:13.499Z,1.58
2023-01-23T09:04:10.503Z,1.62
2023-01-23T09:05:10.515Z,1.57
2023-01-23T09:06:10.505Z,1.57
2023-01-23T09:07:10.505Z,1.59
2023-01-23T09:08:10.545Z,1.55
2023-01-23T09:09:10.513Z,1.57
2023-01-23T09:10:10.497Z,1.58
2023-01-23T09:11:10.526Z,1.57
2023-01-23T09:12:10.504Z,1.6
2023-01-23T09:13:10.512Z,1.63
2023-01-23T09:14:10.499Z,1.63
2023-01-23T09:15:10.662Z,1.6
2023-01-23T09:16:10.584Z,1.61
2023-01-23T09:17:10.510Z,1.64
2023-01-23T09:18:10.510Z,1.66
2023-01-23T09:19:10.504Z,1.65
2023-01-23T09:20:10.520Z,1.67
2023-01-23T09:21:10.525Z,1.7
2023-01-23T09:22:10.506Z,1.69
2023-01-23T09:23:10.610Z,1.72
2023-01-23T09:24:10.504Z,1.71
2023-01-23T09:25:10.509Z,1.71
2023-01-23T09:26:10.507Z,1.69
2023-01-23T09:27:10.519Z,1.69
2023-01-23T09:28:10.499Z,1.72
2023-01-23T09:29:10.512Z,1.73
2023-01-23T09:30:10.504Z,1.72
2023-01-23T09:31:10.505Z,1.72
2023-01-23T09:32:10.526Z,1.71
2023-01-23T09:33:10.507Z,1.67
2023-01-23T09:34:10.504Z,1.69
2023-01-23T09:35:10.509Z,1.72
2023-01-23T09:36:10.527Z,1.77
2023-01-23T09:37:10.519Z,1.78
2023-01-23T09:38:10.652Z,1.71
2023-01-23T09:39:10.505Z,1.75
2023-01-23T09:40:10.504Z,1.77
2023-01-23T09:41:10.524Z,1.82
2023-01-23T09:42:10.526Z,1.76
2023-01-23T09:43:10.521Z,1.75
2023-01-23T09:44:10.518Z,1.77
2023-01-23T09:45:10.503Z,1.78
2023-01-23T09:46:10.527Z,1.8
2023-01-23T09:47:10.503Z,1.85
2023-01-23T09:48:10.674Z,1.86
2023-01-23T09:49:10.949Z,1.87
2023-01-23T09:50:10.683Z,1.86
2023-01-23T09:51:10.599Z,1.88
2023-01-23T09:52:10.888Z,1.91
2023-01-23T09:53:11.115Z,1.85
2023-01-23T09:54:11.327Z,1.86
2023-01-23T09:55:10.507Z,1.84
2023-01-23T09:56:10.511Z,1.87
2023-01-23T09:57:10.508Z,1.81
2023-01-23T09:58:10.527Z,1.83
2023-01-23T09:59:10.532Z,1.82
2023-01-23T10:00:10.504Z,1.81
2023-01-23T10:01:10.565Z,1.84
2023-01-23T10:02:10.533Z,1.84
2023-01-23T10:03:10.506Z,1.85
2023-01-23T10:04:10.508Z,1.84
2023-01-23T10:05:10.507Z,1.84
2023-01-23T10:06:10.532Z,1.89
2023-01-23T10:07:10.504Z,1.91
2023-01-23T10:08:10.498Z,1.94
2023-01-23T10:09:10.505Z,1.98
2023-01-23T10:10:10.503Z,1.97
2023-01-23T10:11:10.520Z,1.97
2023-01-23T10:12:10.503Z,1.95
2023-01-23T10:13:10.516Z,1.96
2023-01-23T10:14:10.506Z,1.95
2023-01-23T10:15:10.498Z,1.99
2023-01-23T10:16:10.517Z,1.98
2023-01-23T10:17:10.553Z,1.96
2023-01-23T10:18:10.495Z,1.95
2023-01-23T10:19:11.750Z,1.89
2023-01-23T10:20:10.919Z,1.92
2023-01-23T10:21:10.277Z,1.95
2023-01-23T10:22:22.345Z,1.98
2023-01-23T10:23:10.726Z,2
2023-01-23T10:24:10.910Z,1.98
2023-01-23T10:25:10.760Z,2.02
2023-01-23T10:26:10.970Z,2.02
2023-01-23T10:27:10.775Z,2.06
2023-01-23T10:28:11.586Z,2.07
2023-01-23T10:29:10.516Z,2.03
2023-01-23T10:30:10.513Z,1.97
2023-01-23T10:31:10.590Z,1.98
2023-01-23T10:32:10.531Z,1.96
2023-01-23T10:33:10.508Z,2
2023-01-23T10:34:10.650Z,2.04
2023-01-23T10:35:10.524Z,2.06
2023-01-23T10:36:11.022Z,2.07
2023-01-23T10:37:10.705Z,2.02
2023-01-23T10:38:10.501Z,2.06
2023-01-23T10:39:10.533Z,2.09
2023-01-23T10:40:10.502Z,2.1
2023-01-23T10:41:10.504Z,2.09
2023-01-23T10:42:10.498Z,2.14
2023-01-23T10:43:10.507Z,2.15
2023-01-23T10:44:10.526Z,2.14
2023-01-23T10:45:10.509Z,2.07
2023-01-23T10:46:10.609Z,2.05
2023-01-23T10:47:10.507Z,2.08
2023-01-23T10:48:16.263Z,2.09
2023-01-23T10:49:10.602Z,2.04
2023-01-23T10:50:10.520Z,2.1
2023-01-23T10:51:10.538Z,2.1
2023-01-23T10:52:10.582Z,2.14
2023-01-23T10:53:10.510Z,2.15
2023-01-23T10:54:25.900Z,2.2
2023-01-23T10:55:10.506Z,2.24
2023-01-23T10:56:10.694Z,2.12
2023-01-23T10:57:10.503Z,2.12
2023-01-23T10:58:10.546Z,2.12
2023-01-23T10:59:10.533Z,2.14
2023-01-23T11:00:10.696Z,2.17
2023-01-23T11:01:10.681Z,2.19
2023-01-23T11:02:10.737Z,2.14
2023-01-23T11:03:10.873Z,2.18
2023-01-23T11:04:10.781Z,2.12
2023-01-23T11:05:11.006Z,2.12
2023-01-23T11:06:10.507Z,2.08
2023-01-23T11:07:10.754Z,2.1
2023-01-23T11:08:10.509Z,2.03
2023-01-23T11:09:10.781Z,2.06
2023-01-23T11:10:10.573Z,2.04
2023-01-23T11:11:10.777Z,2.07
2023-01-23T11:12:10.512Z,2.12
2023-01-23T11:13:10.525Z,2.16
2023-01-23T11:14:10.502Z,2.15
2023-01-23T11:15:10.510Z,2.17
2023-01-23T11:16:10.534Z,2.24
2023-01-23T11:17:10.524Z,2.23
2023-01-23T11:18:10.586Z,2.25
2023-01-23T11:19:10.532Z,2.32
2023-01-23T11:20:10.503Z,2.3
2023-01-23T11:21:10.510Z,2.28
2023-01-23T11:22:10.505Z,2.32
2023-01-23T11:23:10.502Z,2.29
2023-01-23T11:24:10.518Z,2.33
2023-01-23T11:25:10.494Z,2.33
2023-01-23T11:26:10.522Z,2.33
2023-01-23T11:27:10.547Z,2.29
2023-01-23T11:28:10.501Z,2.33
2023-01-23T11:29:10.499Z,2.35
2023-01-23T11:30:10.513Z,2.33
2023-01-23T11:31:15.341Z,2.36
2023-01-23T11:32:10.647Z,2.4
2023-01-23T11:33:10.508Z,2.27
2023-01-23T11:34:10.502Z,2.27
2023-01-23T11:35:10.503Z,2.3
2023-01-23T11:36:10.501Z,2.3
2023-01-23T11:37:10.519Z,2.29
2023-01-23T11:38:10.502Z,2.24
2023-01-23T11:39:10.499Z,2.28
2023-01-23T11:40:10.512Z,2.27
2023-01-23T11:41:10.505Z,2.33
2023-01-23T11:42:10.510Z,2.34
2023-01-23T11:43:10.513Z,2.26
2023-01-23T11:44:14.720Z,2.31
2023-01-23T11:45:10.755Z,2.3
2023-01-23T11:46:10.802Z,2.34
2023-01-23T11:47:10.837Z,2.26
2023-01-23T11:48:10.771Z,2.27
2023-01-23T11:49:10.815Z,2.33
2023-01-23T11:50:10.836Z,2.28
2023-01-23T11:51:10.534Z,2.29
2023-01-23T11:52:10.524Z,2.31
2023-01-23T11:53:10.502Z,2.29
2023-01-23T11:54:10.549Z,2.32
2023-01-23T11:55:10.504Z,2.34
2023-01-23T11:56:10.501Z,2.34
2023-01-23T11:57:10.531Z,2.35
2023-01-23T11:58:10.508Z,2.32
2023-01-23T11:59:10.524Z,2.29
2023-01-23T12:00:10.508Z,2.35
2023-01-23T12:01:10.503Z,2.28
2023-01-23T12:02:10.507Z,2.26
2023-01-23T12:03:10.505Z,2.32
2023-01-23T12:04:10.583Z,2.34
2023-01-23T12:05:10.588Z,2.28
2023-01-23T12:06:19.878Z,2.35
2023-01-23T12:07:10.519Z,2.35
2023-01-23T12:08:10.495Z,2.34
2023-01-23T12:09:10.581Z,2.32
2023-01-23T12:10:10.501Z,2.3
2023-01-23T12:11:10.603Z,2.32
2023-01-23T12:12:10.500Z,2.33
2023-01-23T12:13:10.512Z,2.33
2023-01-23T12:14:10.530Z,2.38
2023-01-23T12:15:10.736Z,2.43
2023-01-23T12:16:10.986Z,2.46
2023-01-23T12:17:10.645Z,2.46
2023-01-23T12:18:10.506Z,2.47
2023-01-23T12:19:10.503Z,2.47
2023-01-23T12:20:10.498Z,2.51
2023-01-23T12:21:10.522Z,2.54
2023-01-23T12:22:10.850Z,2.49
2023-01-23T12:23:10.500Z,2.54
2023-01-23T12:24:10.502Z,2.44
2023-01-23T12:25:10.497Z,2.43
2023-01-23T12:26:10.498Z,2.32
2023-01-23T12:27:10.516Z,2.32
2023-01-23T12:28:10.500Z,2.35
2023-01-23T12:29:10.504Z,2.39
2023-01-23T12:30:10.502Z,2.43
2023-01-23T12:31:10.751Z,2.38
2023-01-23T12:32:10.702Z,2.41
2023-01-23T12:33:10.723Z,2.42
2023-01-23T12:34:10.509Z,2.38
2023-01-23T12:35:10.749Z,2.36
2023-01-23T12:36:10.525Z,2.43
2023-01-23T12:37:29.323Z,2.39
2023-01-23T12:38:10.500Z,2.45
2023-01-23T12:39:10.500Z,2.4
2023-01-23T12:40:10.503Z,2.42
2023-01-23T12:41:10.500Z,2.41
2023-01-23T12:42:10.612Z,2.43
2023-01-23T12:43:10.518Z,2.46
2023-01-23T12:44:10.509Z,2.46
2023-01-23T12:45:10.523Z,2.42
2023-01-23T12:46:10.494Z,2.42
2023-01-23T12:47:10.530Z,2.39
2023-01-23T12:48:10.501Z,2.45
2023-01-23T12:49:10.623Z,2.43
2023-01-23T12:50:10.519Z,2.4
2023-01-23T12:51:10.562Z,2.35
2023-01-23T12:52:10.512Z,2.43
2023-01-23T12:53:10.512Z,2.43
2023-01-23T12:54:10.537Z,2.41
2023-01-23T12:55:10.504Z,2.36
2023-01-23T12:56:10.509Z,2.37
2023-01-23T12:57:10.518Z,2.39
2023-01-23T12:58:10.639Z,2.36
2023-01-23T12:59:10.509Z,2.37
2023-01-23T13:00:10.520Z,2.41
2023-01-23T13:01:10.525Z,2.47
2023-01-23T13:02:10.550Z,2.41
2023-01-23T13:03:10.499Z,2.43
2023-01-23T13:04:10.505Z,2.47
2023-01-23T13:05:10.505Z,2.47
2023-01-23T13:06:10.512Z,2.4
2023-01-23T13:07:10.504Z,2.43
2023-01-23T13:08:10.508Z,2.42
2023-01-23T13:09:18.295Z,2.44
2023-01-23T13:10:10.543Z,2.42
2023-01-23T13:11:10.511Z,2.43
2023-01-23T13:12:10.506Z,2.44
2023-01-23T13:13:10.532Z,2.48
2023-01-23T13:14:10.502Z,2.48
2023-01-23T13:15:14.649Z,2.47
2023-01-23T13:16:10.514Z,2.41
2023-01-23T13:17:10.499Z,2.45
2023-01-23T13:18:10.548Z,2.46
2023-01-23T13:19:10.502Z,2.43
2023-01-23T13:20:10.509Z,2.45
2023-01-23T13:21:10.507Z,2.46
2023-01-23T13:22:16.181Z,2.44
2023-01-23T13:23:10.522Z,2.42